sensor_id;sensor_type;location;lat;lon;timestamp;P1;durP1;ratioP1;P2;durP2;ratioP2
13693;SDS011;6919;52.344;14.518;2023-04-24T00:02:00;1.47;;;1.00;;
13693;SDS011;6919;52.344;14.518;2023-04-24T00:04:30;1.10;;;0.83;;
13693;SDS011;6919;52.344;14.518;2023-04-24T00:06:58;1.70;;;1.40;;
13693;SDS011;6919;52.344;14.518;2023-04-24T00:09:26;1.20;;;1.07;;
13693;SDS011;6919;52.344;14.518;2023-04-24T00:11:55;1.13;;;1.03;;
13693;SDS011;6919;52.344;14.518;2023-04-24T00:14:23;1.80;;;1.13;;
13693;SDS011;6919;52.344;14.518;2023-04-24T00:16:51;1.67;;;1.07;;
13693;SDS011;6919;52.344;14.518;2023-04-24T00:19:21;1.17;;;1.07;;
13693;SDS011;6919;52.344;14.518;2023-04-24T00:21:50;1.00;;;1.00;;
13693;SDS011;6919;52.344;14.518;2023-04-24T00:24:19;1.27;;;1.17;;
13693;SDS011;6919;52.344;14.518;2023-04-24T00:26:47;1.00;;;1.00;;
13693;SDS011;6919;52.344;14.518;2023-04-24T00:29:16;0.90;;;0.90;;
13693;SDS011;6919;52.344;14.518;2023-04-24T00:31:44;1.60;;;1.13;;
13693;SDS011;6919;52.344;14.518;2023-04-24T00:34:13;1.77;;;1.03;;
13693;SDS011;6919;52.344;14.518;2023-04-24T00:36:42;3.07;;;1.30;;
13693;SDS011;6919;52.344;14.518;2023-04-24T00:39:11;1.27;;;1.10;;
13693;SDS011;6919;52.344;14.518;2023-04-24T00:41:39;1.30;;;1.20;;
13693;SDS011;6919;52.344;14.518;2023-04-24T00:44:07;1.00;;;0.80;;
13693;SDS011;6919;52.344;14.518;2023-04-24T00:46:36;1.73;;;1.63;;
13693;SDS011;6919;52.344;14.518;2023-04-24T00:49:05;1.20;;;1.10;;
13693;SDS011;6919;52.344;14.518;2023-04-24T00:51:33;1.10;;;1.00;;
13693;SDS011;6919;52.344;14.518;2023-04-24T00:54:04;0.93;;;0.90;;
13693;SDS011;6919;52.344;14.518;2023-04-24T00:56:32;2.10;;;1.37;;
13693;SDS011;6919;52.344;14.518;2023-04-24T00:59:00;1.17;;;1.07;;
13693;SDS011;6919;52.344;14.518;2023-04-24T01:01:29;1.17;;;1.00;;
13693;SDS011;6919;52.344;14.518;2023-04-24T01:03:58;0.83;;;0.83;;
13693;SDS011;6919;52.344;14.518;2023-04-24T01:06:28;1.10;;;0.93;;
13693;SDS011;6919;52.344;14.518;2023-04-24T01:08:58;1.03;;;0.93;;
13693;SDS011;6919;52.344;14.518;2023-04-24T01:11:28;0.90;;;0.90;;
13693;SDS011;6919;52.344;14.518;2023-04-24T01:13:58;0.80;;;0.73;;
13693;SDS011;6919;52.344;14.518;2023-04-24T01:16:27;3.07;;;1.13;;
13693;SDS011;6919;52.344;14.518;2023-04-24T01:18:56;1.17;;;1.07;;
13693;SDS011;6919;52.344;14.518;2023-04-24T01:21:26;2.50;;;1.37;;
13693;SDS011;6919;52.344;14.518;2023-04-24T01:23:59;1.43;;;1.30;;
13693;SDS011;6919;52.344;14.518;2023-04-24T01:26:27;0.97;;;0.93;;
13693;SDS011;6919;52.344;14.518;2023-04-24T01:28:55;1.97;;;1.73;;
13693;SDS011;6919;52.344;14.518;2023-04-24T01:31:24;0.90;;;0.90;;
13693;SDS011;6919;52.344;14.518;2023-04-24T01:33:52;2.50;;;1.20;;
13693;SDS011;6919;52.344;14.518;2023-04-24T01:36:23;0.80;;;0.80;;
13693;SDS011;6919;52.344;14.518;2023-04-24T01:38:54;1.00;;;0.90;;
13693;SDS011;6919;52.344;14.518;2023-04-24T01:41:24;1.37;;;0.93;;
13693;SDS011;6919;52.344;14.518;2023-04-24T01:43:52;0.77;;;0.77;;
13693;SDS011;6919;52.344;14.518;2023-04-24T01:46:22;0.90;;;0.90;;
13693;SDS011;6919;52.344;14.518;2023-04-24T01:48:51;1.63;;;0.93;;
13693;SDS011;6919;52.344;14.518;2023-04-24T01:51:21;1.17;;;1.07;;
13693;SDS011;6919;52.344;14.518;2023-04-24T01:53:49;0.80;;;0.80;;
13693;SDS011;6919;52.344;14.518;2023-04-24T01:56:18;4.80;;;1.30;;
13693;SDS011;6919;52.344;14.518;2023-04-24T01:58:49;1.40;;;1.30;;
13693;SDS011;6919;52.344;14.518;2023-04-24T02:01:20;1.30;;;1.07;;
13693;SDS011;6919;52.344;14.518;2023-04-24T02:03:48;2.60;;;1.37;;
13693;SDS011;6919;52.344;14.518;2023-04-24T02:06:17;1.00;;;1.00;;
13693;SDS011;6919;52.344;14.518;2023-04-24T02:08:45;0.83;;;0.83;;
13693;SDS011;6919;52.344;14.518;2023-04-24T02:11:14;1.03;;;0.73;;
13693;SDS011;6919;52.344;14.518;2023-04-24T02:13:42;1.73;;;0.97;;
13693;SDS011;6919;52.344;14.518;2023-04-24T02:16:12;1.30;;;1.00;;
13693;SDS011;6919;52.344;14.518;2023-04-24T02:18:40;1.27;;;1.17;;
13693;SDS011;6919;52.344;14.518;2023-04-24T02:21:08;2.20;;;1.53;;
13693;SDS011;6919;52.344;14.518;2023-04-24T02:23:36;1.17;;;1.00;;
13693;SDS011;6919;52.344;14.518;2023-04-24T02:26:05;0.70;;;0.70;;
13693;SDS011;6919;52.344;14.518;2023-04-24T02:28:33;1.33;;;1.30;;
13693;SDS011;6919;52.344;14.518;2023-04-24T02:31:02;0.90;;;0.90;;
13693;SDS011;6919;52.344;14.518;2023-04-24T02:33:32;1.60;;;1.50;;
13693;SDS011;6919;52.344;14.518;2023-04-24T02:36:01;1.47;;;1.27;;
13693;SDS011;6919;52.344;14.518;2023-04-24T02:38:30;1.23;;;1.13;;
13693;SDS011;6919;52.344;14.518;2023-04-24T02:40:58;0.70;;;0.70;;
13693;SDS011;6919;52.344;14.518;2023-04-24T02:43:28;1.43;;;0.80;;
13693;SDS011;6919;52.344;14.518;2023-04-24T02:45:56;0.80;;;0.80;;
13693;SDS011;6919;52.344;14.518;2023-04-24T02:48:25;1.37;;;1.00;;
13693;SDS011;6919;52.344;14.518;2023-04-24T02:50:54;1.60;;;1.20;;
13693;SDS011;6919;52.344;14.518;2023-04-24T02:53:23;1.37;;;1.27;;
13693;SDS011;6919;52.344;14.518;2023-04-24T02:55:52;1.40;;;1.27;;
13693;SDS011;6919;52.344;14.518;2023-04-24T02:58:20;1.60;;;1.30;;
13693;SDS011;6919;52.344;14.518;2023-04-24T03:00:48;1.27;;;1.17;;
13693;SDS011;6919;52.344;14.518;2023-04-24T03:03:21;1.40;;;1.27;;
13693;SDS011;6919;52.344;14.518;2023-04-24T03:05:50;1.23;;;1.13;;
13693;SDS011;6919;52.344;14.518;2023-04-24T03:08:20;1.27;;;1.17;;
13693;SDS011;6919;52.344;14.518;2023-04-24T03:10:48;0.87;;;0.87;;
13693;SDS011;6919;52.344;14.518;2023-04-24T03:13:17;1.33;;;1.07;;
13693;SDS011;6919;52.344;14.518;2023-04-24T03:15:45;0.83;;;0.83;;
13693;SDS011;6919;52.344;14.518;2023-04-24T03:18:13;1.13;;;1.10;;
13693;SDS011;6919;52.344;14.518;2023-04-24T03:20:41;0.73;;;0.73;;
13693;SDS011;6919;52.344;14.518;2023-04-24T03:23:12;1.13;;;1.03;;
13693;SDS011;6919;52.344;14.518;2023-04-24T03:25:42;2.23;;;1.77;;
13693;SDS011;6919;52.344;14.518;2023-04-24T03:28:11;1.00;;;0.93;;
13693;SDS011;6919;52.344;14.518;2023-04-24T03:30:39;1.00;;;0.90;;
13693;SDS011;6919;52.344;14.518;2023-04-24T03:33:08;1.07;;;1.03;;
13693;SDS011;6919;52.344;14.518;2023-04-24T03:35:37;0.60;;;0.60;;
13693;SDS011;6919;52.344;14.518;2023-04-24T03:38:05;2.03;;;1.10;;
13693;SDS011;6919;52.344;14.518;2023-04-24T03:40:33;1.20;;;1.10;;
13693;SDS011;6919;52.344;14.518;2023-04-24T03:43:03;1.20;;;1.10;;
13693;SDS011;6919;52.344;14.518;2023-04-24T03:45:31;1.70;;;1.40;;
13693;SDS011;6919;52.344;14.518;2023-04-24T03:48:00;1.27;;;1.10;;
13693;SDS011;6919;52.344;14.518;2023-04-24T03:50:28;1.60;;;1.10;;
13693;SDS011;6919;52.344;14.518;2023-04-24T03:52:56;0.70;;;0.63;;
13693;SDS011;6919;52.344;14.518;2023-04-24T03:55:24;1.33;;;1.23;;
13693;SDS011;6919;52.344;14.518;2023-04-24T03:57:53;1.37;;;0.87;;
13693;SDS011;6919;52.344;14.518;2023-04-24T04:00:23;1.07;;;1.00;;
13693;SDS011;6919;52.344;14.518;2023-04-24T04:02:52;1.20;;;1.03;;
13693;SDS011;6919;52.344;14.518;2023-04-24T04:05:21;0.93;;;0.87;;
13693;SDS011;6919;52.344;14.518;2023-04-24T04:07:50;1.10;;;0.83;;
13693;SDS011;6919;52.344;14.518;2023-04-24T04:10:18;4.63;;;1.10;;
13693;SDS011;6919;52.344;14.518;2023-04-24T04:12:47;1.40;;;0.90;;
13693;SDS011;6919;52.344;14.518;2023-04-24T04:15:15;1.27;;;1.17;;
13693;SDS011;6919;52.344;14.518;2023-04-24T04:17:45;0.87;;;0.87;;
13693;SDS011;6919;52.344;14.518;2023-04-24T04:20:13;1.80;;;1.20;;
13693;SDS011;6919;52.344;14.518;2023-04-24T04:22:42;0.80;;;0.80;;
13693;SDS011;6919;52.344;14.518;2023-04-24T04:25:10;1.60;;;1.27;;
13693;SDS011;6919;52.344;14.518;2023-04-24T04:27:39;0.70;;;0.70;;
13693;SDS011;6919;52.344;14.518;2023-04-24T04:30:08;1.27;;;0.90;;
13693;SDS011;6919;52.344;14.518;2023-04-24T04:32:36;1.00;;;1.00;;
13693;SDS011;6919;52.344;14.518;2023-04-24T04:35:06;0.70;;;0.70;;
13693;SDS011;6919;52.344;14.518;2023-04-24T04:37:35;1.43;;;0.80;;
13693;SDS011;6919;52.344;14.518;2023-04-24T04:40:04;1.73;;;1.10;;
13693;SDS011;6919;52.344;14.518;2023-04-24T04:42:37;1.60;;;0.97;;
13693;SDS011;6919;52.344;14.518;2023-04-24T04:45:07;1.00;;;0.90;;
13693;SDS011;6919;52.344;14.518;2023-04-24T04:47:37;0.73;;;0.73;;
13693;SDS011;6919;52.344;14.518;2023-04-24T04:50:08;1.03;;;1.03;;
13693;SDS011;6919;52.344;14.518;2023-04-24T04:52:37;1.43;;;1.33;;
13693;SDS011;6919;52.344;14.518;2023-04-24T04:55:06;1.47;;;1.37;;
13693;SDS011;6919;52.344;14.518;2023-04-24T04:57:35;1.80;;;1.50;;
13693;SDS011;6919;52.344;14.518;2023-04-24T05:00:04;1.10;;;1.10;;
13693;SDS011;6919;52.344;14.518;2023-04-24T05:02:36;1.20;;;1.10;;
13693;SDS011;6919;52.344;14.518;2023-04-24T05:05:05;0.67;;;0.67;;
13693;SDS011;6919;52.344;14.518;2023-04-24T05:07:37;1.20;;;1.13;;
13693;SDS011;6919;52.344;14.518;2023-04-24T05:10:07;0.93;;;0.87;;
13693;SDS011;6919;52.344;14.518;2023-04-24T05:12:36;0.83;;;0.83;;
13693;SDS011;6919;52.344;14.518;2023-04-24T05:15:05;1.00;;;0.90;;
13693;SDS011;6919;52.344;14.518;2023-04-24T05:17:35;0.87;;;0.77;;
13693;SDS011;6919;52.344;14.518;2023-04-24T05:20:08;1.00;;;0.90;;
13693;SDS011;6919;52.344;14.518;2023-04-24T05:22:37;1.63;;;1.27;;
13693;SDS011;6919;52.344;14.518;2023-04-24T05:25:05;0.73;;;0.70;;
13693;SDS011;6919;52.344;14.518;2023-04-24T05:27:35;0.87;;;0.87;;
13693;SDS011;6919;52.344;14.518;2023-04-24T05:30:04;0.60;;;0.60;;
13693;SDS011;6919;52.344;14.518;2023-04-24T05:32:34;0.83;;;0.77;;
13693;SDS011;6919;52.344;14.518;2023-04-24T05:35:03;1.27;;;1.07;;
13693;SDS011;6919;52.344;14.518;2023-04-24T05:37:34;0.50;;;0.50;;
13693;SDS011;6919;52.344;14.518;2023-04-24T05:40:02;0.87;;;0.83;;
13693;SDS011;6919;52.344;14.518;2023-04-24T05:42:32;0.67;;;0.60;;
13693;SDS011;6919;52.344;14.518;2023-04-24T05:45:00;0.67;;;0.67;;
13693;SDS011;6919;52.344;14.518;2023-04-24T05:47:28;0.70;;;0.70;;
13693;SDS011;6919;52.344;14.518;2023-04-24T05:49:57;1.13;;;0.97;;
13693;SDS011;6919;52.344;14.518;2023-04-24T05:52:25;0.60;;;0.60;;
13693;SDS011;6919;52.344;14.518;2023-04-24T05:54:55;0.80;;;0.73;;
13693;SDS011;6919;52.344;14.518;2023-04-24T05:57:23;0.93;;;0.93;;
13693;SDS011;6919;52.344;14.518;2023-04-24T05:59:52;1.00;;;0.90;;
13693;SDS011;6919;52.344;14.518;2023-04-24T06:02:20;0.60;;;0.60;;
13693;SDS011;6919;52.344;14.518;2023-04-24T06:04:49;1.03;;;1.03;;
13693;SDS011;6919;52.344;14.518;2023-04-24T06:07:18;1.13;;;1.07;;
13693;SDS011;6919;52.344;14.518;2023-04-24T06:09:46;0.63;;;0.60;;
13693;SDS011;6919;52.344;14.518;2023-04-24T06:12:16;1.27;;;1.17;;
13693;SDS011;6919;52.344;14.518;2023-04-24T06:14:44;0.70;;;0.70;;
13693;SDS011;6919;52.344;14.518;2023-04-24T06:17:12;0.60;;;0.60;;
13693;SDS011;6919;52.344;14.518;2023-04-24T06:19:41;1.87;;;0.90;;
13693;SDS011;6919;52.344;14.518;2023-04-24T06:22:09;0.80;;;0.80;;
13693;SDS011;6919;52.344;14.518;2023-04-24T06:24:39;1.47;;;1.00;;
13693;SDS011;6919;52.344;14.518;2023-04-24T06:27:07;1.10;;;0.80;;
13693;SDS011;6919;52.344;14.518;2023-04-24T06:29:37;1.23;;;1.10;;
13693;SDS011;6919;52.344;14.518;2023-04-24T06:32:05;0.60;;;0.60;;
13693;SDS011;6919;52.344;14.518;2023-04-24T06:34:33;1.77;;;1.63;;
13693;SDS011;6919;52.344;14.518;2023-04-24T06:37:02;1.10;;;0.97;;
13693;SDS011;6919;52.344;14.518;2023-04-24T06:39:33;0.70;;;0.70;;
13693;SDS011;6919;52.344;14.518;2023-04-24T06:42:01;0.80;;;0.77;;
13693;SDS011;6919;52.344;14.518;2023-04-24T06:44:30;0.77;;;0.73;;
13693;SDS011;6919;52.344;14.518;2023-04-24T06:46:59;0.80;;;0.80;;
13693;SDS011;6919;52.344;14.518;2023-04-24T06:49:28;0.63;;;0.63;;
13693;SDS011;6919;52.344;14.518;2023-04-24T06:51:56;0.77;;;0.47;;
13693;SDS011;6919;52.344;14.518;2023-04-24T06:54:24;0.83;;;0.77;;
13693;SDS011;6919;52.344;14.518;2023-04-24T06:56:52;0.43;;;0.43;;
13693;SDS011;6919;52.344;14.518;2023-04-24T06:59:21;0.60;;;0.60;;
13693;SDS011;6919;52.344;14.518;2023-04-24T07:01:49;0.60;;;0.60;;
13693;SDS011;6919;52.344;14.518;2023-04-24T07:04:22;0.70;;;0.70;;
13693;SDS011;6919;52.344;14.518;2023-04-24T07:06:52;0.80;;;0.73;;
13693;SDS011;6919;52.344;14.518;2023-04-24T07:09:22;0.40;;;0.40;;
13693;SDS011;6919;52.344;14.518;2023-04-24T07:11:54;0.40;;;0.40;;
13693;SDS011;6919;52.344;14.518;2023-04-24T07:14:23;0.93;;;0.80;;
13693;SDS011;6919;52.344;14.518;2023-04-24T07:16:51;1.17;;;0.80;;
13693;SDS011;6919;52.344;14.518;2023-04-24T07:19:21;0.60;;;0.60;;
13693;SDS011;6919;52.344;14.518;2023-04-24T07:21:50;0.40;;;0.40;;
13693;SDS011;6919;52.344;14.518;2023-04-24T07:24:19;0.50;;;0.50;;
13693;SDS011;6919;52.344;14.518;2023-04-24T07:26:51;0.63;;;0.63;;
13693;SDS011;6919;52.344;14.518;2023-04-24T07:29:21;0.50;;;0.50;;
13693;SDS011;6919;52.344;14.518;2023-04-24T07:31:49;0.50;;;0.50;;
13693;SDS011;6919;52.344;14.518;2023-04-24T07:34:18;0.50;;;0.50;;
13693;SDS011;6919;52.344;14.518;2023-04-24T07:36:48;0.90;;;0.77;;
13693;SDS011;6919;52.344;14.518;2023-04-24T07:39:19;0.60;;;0.60;;
13693;SDS011;6919;52.344;14.518;2023-04-24T07:41:47;0.40;;;0.40;;
13693;SDS011;6919;52.344;14.518;2023-04-24T07:44:15;0.70;;;0.70;;
13693;SDS011;6919;52.344;14.518;2023-04-24T07:46:43;0.33;;;0.33;;
13693;SDS011;6919;52.344;14.518;2023-04-24T07:49:12;0.30;;;0.30;;
13693;SDS011;6919;52.344;14.518;2023-04-24T07:51:44;0.60;;;0.60;;
13693;SDS011;6919;52.344;14.518;2023-04-24T07:54:14;0.30;;;0.30;;
13693;SDS011;6919;52.344;14.518;2023-04-24T07:56:43;0.67;;;0.67;;
13693;SDS011;6919;52.344;14.518;2023-04-24T07:59:11;0.43;;;0.43;;
13693;SDS011;6919;52.344;14.518;2023-04-24T08:01:39;0.60;;;0.60;;
13693;SDS011;6919;52.344;14.518;2023-04-24T08:04:07;0.60;;;0.50;;
13693;SDS011;6919;52.344;14.518;2023-04-24T08:06:36;0.57;;;0.57;;
13693;SDS011;6919;52.344;14.518;2023-04-24T08:09:05;0.43;;;0.43;;
13693;SDS011;6919;52.344;14.518;2023-04-24T08:11:35;0.20;;;0.20;;
13693;SDS011;6919;52.344;14.518;2023-04-24T08:14:03;0.30;;;0.30;;
13693;SDS011;6919;52.344;14.518;2023-04-24T08:16:32;0.20;;;0.20;;
13693;SDS011;6919;52.344;14.518;2023-04-24T08:19:01;0.87;;;0.57;;
13693;SDS011;6919;52.344;14.518;2023-04-24T08:21:29;0.40;;;0.40;;
13693;SDS011;6919;52.344;14.518;2023-04-24T08:23:58;0.57;;;0.30;;
13693;SDS011;6919;52.344;14.518;2023-04-24T08:26:26;0.30;;;0.30;;
13693;SDS011;6919;52.344;14.518;2023-04-24T08:28:56;0.20;;;0.20;;
13693;SDS011;6919;52.344;14.518;2023-04-24T08:31:24;0.20;;;0.20;;
13693;SDS011;6919;52.344;14.518;2023-04-24T08:33:53;1.03;;;0.63;;
13693;SDS011;6919;52.344;14.518;2023-04-24T08:36:21;0.20;;;0.20;;
13693;SDS011;6919;52.344;14.518;2023-04-24T08:38:55;1.20;;;0.27;;
13693;SDS011;6919;52.344;14.518;2023-04-24T08:41:24;0.30;;;0.30;;
13693;SDS011;6919;52.344;14.518;2023-04-24T08:43:55;0.23;;;0.23;;
13693;SDS011;6919;52.344;14.518;2023-04-24T08:46:25;0.27;;;0.27;;
13693;SDS011;6919;52.344;14.518;2023-04-24T08:48:54;0.30;;;0.30;;
13693;SDS011;6919;52.344;14.518;2023-04-24T08:51:24;0.20;;;0.20;;
13693;SDS011;6919;52.344;14.518;2023-04-24T08:53:55;0.10;;;0.10;;
13693;SDS011;6919;52.344;14.518;2023-04-24T08:56:24;0.20;;;0.20;;
13693;SDS011;6919;52.344;14.518;2023-04-24T08:58:56;0.20;;;0.20;;
13693;SDS011;6919;52.344;14.518;2023-04-24T09:01:25;0.30;;;0.30;;
13693;SDS011;6919;52.344;14.518;2023-04-24T09:03:55;0.20;;;0.20;;
13693;SDS011;6919;52.344;14.518;2023-04-24T09:06:24;0.10;;;0.10;;
13693;SDS011;6919;52.344;14.518;2023-04-24T09:08:53;0.20;;;0.20;;
13693;SDS011;6919;52.344;14.518;2023-04-24T09:11:22;0.23;;;0.23;;
13693;SDS011;6919;52.344;14.518;2023-04-24T09:13:53;0.40;;;0.40;;
13693;SDS011;6919;52.344;14.518;2023-04-24T09:16:24;0.30;;;0.30;;
13693;SDS011;6919;52.344;14.518;2023-04-24T09:18:53;0.30;;;0.30;;
13693;SDS011;6919;52.344;14.518;2023-04-24T09:21:22;0.30;;;0.30;;
13693;SDS011;6919;52.344;14.518;2023-04-24T09:23:57;0.20;;;0.20;;
13693;SDS011;6919;52.344;14.518;2023-04-24T09:26:28;0.20;;;0.20;;
13693;SDS011;6919;52.344;14.518;2023-04-24T09:29:00;0.23;;;0.23;;
13693;SDS011;6919;52.344;14.518;2023-04-24T09:31:29;0.10;;;0.10;;
13693;SDS011;6919;52.344;14.518;2023-04-24T09:34:00;0.10;;;0.10;;
13693;SDS011;6919;52.344;14.518;2023-04-24T09:36:34;0.10;;;0.10;;
13693;SDS011;6919;52.344;14.518;2023-04-24T09:39:05;0.20;;;0.20;;
13693;SDS011;6919;52.344;14.518;2023-04-24T09:41:43;0.30;;;0.30;;
13693;SDS011;6919;52.344;14.518;2023-04-24T09:44:15;0.20;;;0.20;;
13693;SDS011;6919;52.344;14.518;2023-04-24T09:46:49;0.10;;;0.10;;
13693;SDS011;6919;52.344;14.518;2023-04-24T09:49:21;0.10;;;0.10;;
13693;SDS011;6919;52.344;14.518;2023-04-24T09:51:52;0.13;;;0.13;;
13693;SDS011;6919;52.344;14.518;2023-04-24T09:54:30;0.37;;;0.37;;
13693;SDS011;6919;52.344;14.518;2023-04-24T09:56:59;0.30;;;0.30;;
13693;SDS011;6919;52.344;14.518;2023-04-24T09:59:29;0.20;;;0.20;;
13693;SDS011;6919;52.344;14.518;2023-04-24T10:01:59;0.23;;;0.23;;
13693;SDS011;6919;52.344;14.518;2023-04-24T10:04:28;0.50;;;0.40;;
13693;SDS011;6919;52.344;14.518;2023-04-24T10:06:56;0.27;;;0.27;;
13693;SDS011;6919;52.344;14.518;2023-04-24T10:09:27;0.20;;;0.20;;
13693;SDS011;6919;52.344;14.518;2023-04-24T10:11:55;0.20;;;0.20;;
13693;SDS011;6919;52.344;14.518;2023-04-24T10:14:24;0.30;;;0.30;;
13693;SDS011;6919;52.344;14.518;2023-04-24T10:16:54;0.43;;;0.40;;
13693;SDS011;6919;52.344;14.518;2023-04-24T10:19:25;0.40;;;0.40;;
13693;SDS011;6919;52.344;14.518;2023-04-24T10:21:54;1.30;;;1.20;;
13693;SDS011;6919;52.344;14.518;2023-04-24T10:24:24;1.70;;;1.03;;
13693;SDS011;6919;52.344;14.518;2023-04-24T10:26:53;0.30;;;0.30;;
13693;SDS011;6919;52.344;14.518;2023-04-24T10:29:23;0.40;;;0.40;;
13693;SDS011;6919;52.344;14.518;2023-04-24T10:31:52;0.37;;;0.30;;
13693;SDS011;6919;52.344;14.518;2023-04-24T10:34:22;0.20;;;0.20;;
13693;SDS011;6919;52.344;14.518;2023-04-24T10:36:51;0.30;;;0.30;;
13693;SDS011;6919;52.344;14.518;2023-04-24T10:39:23;0.20;;;0.20;;
13693;SDS011;6919;52.344;14.518;2023-04-24T10:41:54;0.17;;;0.17;;
13693;SDS011;6919;52.344;14.518;2023-04-24T10:44:24;0.20;;;0.20;;
13693;SDS011;6919;52.344;14.518;2023-04-24T10:46:54;0.20;;;0.20;;
13693;SDS011;6919;52.344;14.518;2023-04-24T10:49:27;0.30;;;0.20;;
13693;SDS011;6919;52.344;14.518;2023-04-24T10:51:59;0.20;;;0.20;;
13693;SDS011;6919;52.344;14.518;2023-04-24T10:54:34;0.37;;;0.37;;
13693;SDS011;6919;52.344;14.518;2023-04-24T10:57:26;0.30;;;0.30;;
13693;SDS011;6919;52.344;14.518;2023-04-24T11:00:10;0.30;;;0.30;;
13693;SDS011;6919;52.344;14.518;2023-04-24T11:02:47;0.10;;;0.10;;
13693;SDS011;6919;52.344;14.518;2023-04-24T11:05:17;0.30;;;0.30;;
13693;SDS011;6919;52.344;14.518;2023-04-24T11:10:45;0.30;;;0.30;;
13693;SDS011;6919;52.344;14.518;2023-04-24T11:13:22;0.10;;;0.10;;
13693;SDS011;6919;52.344;14.518;2023-04-24T11:18:51;0.20;;;0.20;;
13693;SDS011;6919;52.344;14.518;2023-04-24T11:21:30;0.10;;;0.10;;
13693;SDS011;6919;52.344;14.518;2023-04-24T11:26:58;0.10;;;0.10;;
13693;SDS011;6919;52.344;14.518;2023-04-24T11:29:41;0.40;;;0.40;;
13693;SDS011;6919;52.344;14.518;2023-04-24T11:32:14;0.10;;;0.10;;
13693;SDS011;6919;52.344;14.518;2023-04-24T11:34:53;0.47;;;0.30;;
13693;SDS011;6919;52.344;14.518;2023-04-24T11:37:24;0.13;;;0.13;;
13693;SDS011;6919;52.344;14.518;2023-04-24T11:39:56;0.13;;;0.13;;
13693;SDS011;6919;52.344;14.518;2023-04-24T11:42:27;0.20;;;0.20;;
13693;SDS011;6919;52.344;14.518;2023-04-24T11:44:56;0.13;;;0.13;;
13693;SDS011;6919;52.344;14.518;2023-04-24T11:47:29;0.17;;;0.17;;
13693;SDS011;6919;52.344;14.518;2023-04-24T11:50:01;0.20;;;0.20;;
13693;SDS011;6919;52.344;14.518;2023-04-24T11:52:32;0.50;;;0.50;;
13693;SDS011;6919;52.344;14.518;2023-04-24T11:55:06;0.20;;;0.20;;
13693;SDS011;6919;52.344;14.518;2023-04-24T11:57:36;0.10;;;0.10;;
13693;SDS011;6919;52.344;14.518;2023-04-24T12:00:05;0.20;;;0.20;;
13693;SDS011;6919;52.344;14.518;2023-04-24T12:02:36;0.30;;;0.30;;
13693;SDS011;6919;52.344;14.518;2023-04-24T12:05:07;0.40;;;0.40;;
13693;SDS011;6919;52.344;14.518;2023-04-24T12:07:40;0.20;;;0.20;;
13693;SDS011;6919;52.344;14.518;2023-04-24T12:10:10;0.20;;;0.20;;
13693;SDS011;6919;52.344;14.518;2023-04-24T12:12:38;1.77;;;0.47;;
13693;SDS011;6919;52.344;14.518;2023-04-24T12:15:07;0.20;;;0.20;;
13693;SDS011;6919;52.344;14.518;2023-04-24T12:17:40;0.50;;;0.50;;
13693;SDS011;6919;52.344;14.518;2023-04-24T12:20:12;0.20;;;0.20;;
13693;SDS011;6919;52.344;14.518;2023-04-24T12:22:45;0.37;;;0.23;;
13693;SDS011;6919;52.344;14.518;2023-04-24T12:25:15;0.10;;;0.10;;
13693;SDS011;6919;52.344;14.518;2023-04-24T12:27:45;0.37;;;0.37;;
13693;SDS011;6919;52.344;14.518;2023-04-24T12:30:25;0.20;;;0.20;;
13693;SDS011;6919;52.344;14.518;2023-04-24T12:32:57;0.10;;;0.10;;
13693;SDS011;6919;52.344;14.518;2023-04-24T12:35:28;0.20;;;0.20;;
13693;SDS011;6919;52.344;14.518;2023-04-24T12:38:05;0.13;;;0.13;;
13693;SDS011;6919;52.344;14.518;2023-04-24T12:40:34;0.33;;;0.33;;
13693;SDS011;6919;52.344;14.518;2023-04-24T12:43:12;0.13;;;0.13;;
13693;SDS011;6919;52.344;14.518;2023-04-24T12:45:42;0.27;;;0.27;;
13693;SDS011;6919;52.344;14.518;2023-04-24T12:48:12;0.20;;;0.20;;
13693;SDS011;6919;52.344;14.518;2023-04-24T12:50:43;0.37;;;0.37;;
13693;SDS011;6919;52.344;14.518;2023-04-24T12:53:13;0.20;;;0.20;;
13693;SDS011;6919;52.344;14.518;2023-04-24T12:55:42;0.30;;;0.30;;
13693;SDS011;6919;52.344;14.518;2023-04-24T12:58:11;0.50;;;0.40;;
13693;SDS011;6919;52.344;14.518;2023-04-24T13:00:40;0.20;;;0.20;;
13693;SDS011;6919;52.344;14.518;2023-04-24T13:03:09;0.10;;;0.10;;
13693;SDS011;6919;52.344;14.518;2023-04-24T13:05:38;0.10;;;0.10;;
13693;SDS011;6919;52.344;14.518;2023-04-24T13:08:08;0.43;;;0.43;;
13693;SDS011;6919;52.344;14.518;2023-04-24T13:10:37;0.17;;;0.17;;
13693;SDS011;6919;52.344;14.518;2023-04-24T13:13:06;0.30;;;0.30;;
13693;SDS011;6919;52.344;14.518;2023-04-24T13:15:34;0.10;;;0.10;;
13693;SDS011;6919;52.344;14.518;2023-04-24T13:18:03;0.30;;;0.30;;
13693;SDS011;6919;52.344;14.518;2023-04-24T13:20:31;0.27;;;0.27;;
13693;SDS011;6919;52.344;14.518;2023-04-24T13:23:01;0.20;;;0.20;;
13693;SDS011;6919;52.344;14.518;2023-04-24T13:25:34;0.00;;;0.00;;
13693;SDS011;6919;52.344;14.518;2023-04-24T13:28:05;0.17;;;0.17;;
13693;SDS011;6919;52.344;14.518;2023-04-24T13:30:33;0.17;;;0.17;;
13693;SDS011;6919;52.344;14.518;2023-04-24T13:33:02;0.20;;;0.20;;
13693;SDS011;6919;52.344;14.518;2023-04-24T13:35:31;0.20;;;0.20;;
13693;SDS011;6919;52.344;14.518;2023-04-24T13:38:06;0.23;;;0.23;;
13693;SDS011;6919;52.344;14.518;2023-04-24T13:40:39;0.37;;;0.30;;
13693;SDS011;6919;52.344;14.518;2023-04-24T13:43:07;0.40;;;0.40;;
13693;SDS011;6919;52.344;14.518;2023-04-24T13:45:35;0.50;;;0.50;;
13693;SDS011;6919;52.344;14.518;2023-04-24T13:48:04;0.60;;;0.30;;
13693;SDS011;6919;52.344;14.518;2023-04-24T13:50:32;0.27;;;0.27;;
13693;SDS011;6919;52.344;14.518;2023-04-24T13:53:01;0.20;;;0.20;;
13693;SDS011;6919;52.344;14.518;2023-04-24T13:55:30;0.30;;;0.30;;
13693;SDS011;6919;52.344;14.518;2023-04-24T13:57:59;0.20;;;0.20;;
13693;SDS011;6919;52.344;14.518;2023-04-24T14:00:27;0.20;;;0.20;;
13693;SDS011;6919;52.344;14.518;2023-04-24T14:02:57;0.20;;;0.20;;
13693;SDS011;6919;52.344;14.518;2023-04-24T14:05:25;0.10;;;0.10;;
13693;SDS011;6919;52.344;14.518;2023-04-24T14:07:53;0.10;;;0.10;;
13693;SDS011;6919;52.344;14.518;2023-04-24T14:10:22;0.30;;;0.30;;
13693;SDS011;6919;52.344;14.518;2023-04-24T14:12:50;0.10;;;0.10;;
13693;SDS011;6919;52.344;14.518;2023-04-24T14:15:23;0.10;;;0.10;;
13693;SDS011;6919;52.344;14.518;2023-04-24T14:17:51;0.27;;;0.27;;
13693;SDS011;6919;52.344;14.518;2023-04-24T14:20:22;0.30;;;0.27;;
13693;SDS011;6919;52.344;14.518;2023-04-24T14:22:51;0.23;;;0.20;;
13693;SDS011;6919;52.344;14.518;2023-04-24T14:25:20;0.30;;;0.30;;
13693;SDS011;6919;52.344;14.518;2023-04-24T14:27:49;0.20;;;0.20;;
13693;SDS011;6919;52.344;14.518;2023-04-24T14:30:18;0.53;;;0.40;;
13693;SDS011;6919;52.344;14.518;2023-04-24T14:32:48;0.93;;;0.30;;
13693;SDS011;6919;52.344;14.518;2023-04-24T14:35:16;0.20;;;0.20;;
13693;SDS011;6919;52.344;14.518;2023-04-24T14:37:45;0.30;;;0.30;;
13693;SDS011;6919;52.344;14.518;2023-04-24T14:40:14;0.20;;;0.20;;
13693;SDS011;6919;52.344;14.518;2023-04-24T14:43:02;0.73;;;0.30;;
13693;SDS011;6919;52.344;14.518;2023-04-24T14:45:31;0.10;;;0.10;;
13693;SDS011;6919;52.344;14.518;2023-04-24T14:48:01;0.40;;;0.30;;
13693;SDS011;6919;52.344;14.518;2023-04-24T14:50:29;0.20;;;0.20;;
13693;SDS011;6919;52.344;14.518;2023-04-24T14:52:57;0.27;;;0.27;;
13693;SDS011;6919;52.344;14.518;2023-04-24T14:55:28;0.20;;;0.20;;
13693;SDS011;6919;52.344;14.518;2023-04-24T14:57:56;0.30;;;0.30;;
13693;SDS011;6919;52.344;14.518;2023-04-24T15:00:24;0.10;;;0.10;;
13693;SDS011;6919;52.344;14.518;2023-04-24T15:02:53;0.30;;;0.30;;
13693;SDS011;6919;52.344;14.518;2023-04-24T15:05:23;0.10;;;0.10;;
13693;SDS011;6919;52.344;14.518;2023-04-24T15:07:52;0.50;;;0.50;;
13693;SDS011;6919;52.344;14.518;2023-04-24T15:10:20;0.33;;;0.33;;
13693;SDS011;6919;52.344;14.518;2023-04-24T15:12:54;0.30;;;0.30;;